KHVS

Hartsville Regional Airport

Hartsville, South Carolina, USA
METAR KHVS 181335Z AUTO 26003KT 7SM OVC009 06/06 A3012 RMK AO2
Observed Flight Rules
Jan-18 @ 13:35 UTC (24 minutes ago) Instrument Flight Rules
Wind Visibility Clouds
260° at 3 knots 7 miles
  • Overcast at 900' AGL
Temperatures Readings
Current 6°C / 43°F
Dewpoint 6°C / 43°F
Humidity 100%
Altimeter 30.12" Hg
Pressure 1020.02 hPa
Elevation 111
METAR KHVS 181335Z AUTO 26003KT 7SM OVC009 06/06 A3012 RMK AO2
Observed Flight Rules
Jan-18 @ 13:35 UTC
(24 minutes ago)
IFR
Wind Visibility
260° at 3 knots 7 miles
Clouds
  • Overcast at 900' AGL
Temperature Dewpoint
6°C / 43°F 6°C / 43°F
Humidity Altimeter Pressure
100% 30.12" Hg 1020.02 hPa